Time;durP1;ratioP1;P1;durP2;ratioP2;P2;SDS_P1;SDS_P2;PMS_P1;PMS_P2;Temp;Humidity;BMP_temperature;BMP_pressure;BME280_temperature;BME280_humidity;BME280_pressure;Samples;Min_cycle;Max_cycle;Signal;HPM_P1;HPM_P2
2021/04/13 00:02:20;;;;;;;20.08;9.60;;;;;;;-1.90;100.00;103164.69;5228225;28;20036;-77
2021/04/13 00:04:57;;;;;;;24.85;10.32;;;;;;;-1.89;100.00;103167.28;5227814;28;20070;-77
2021/04/13 00:07:30;;;;;;;24.50;10.18;;;;;;;-1.87;100.00;103164.59;5228233;28;20382;-76
2021/04/13 00:10:06;;;;;;;22.73;10.40;;;;;;;-1.84;100.00;103162.78;5227682;28;20025;-77
2021/04/13 00:12:37;;;;;;;23.25;11.35;;;;;;;-1.77;100.00;103160.91;5227869;28;20401;-77
2021/04/13 00:15:12;;;;;;;21.08;10.52;;;;;;;-1.71;100.00;103160.75;5227514;28;20024;-77
2021/04/13 00:17:44;;;;;;;23.33;10.38;;;;;;;-1.62;100.00;103159.72;5228049;28;20025;-77
2021/04/13 00:20:40;;;;;;;23.33;10.45;;;;;;;-1.54;100.00;103160.44;5225052;28;20021;-77
2021/04/13 00:23:11;;;;;;;;;;;;;;;-1.42;100.00;103170.69;5228155;28;20114;-77
2021/04/13 00:25:51;;;;;;;21.33;9.25;;;;;;;-1.35;100.00;103167.06;5227685;28;19955;-77
2021/04/13 00:28:26;;;;;;;25.63;10.32;;;;;;;-1.32;100.00;103169.59;5226272;28;20031;-77
2021/04/13 00:31:01;;;;;;;22.05;10.23;;;;;;;-1.28;100.00;103161.66;5227282;28;20086;-79
2021/04/13 00:33:36;;;;;;;23.23;10.88;;;;;;;-1.25;100.00;103169.50;5214901;28;20040;-77
2021/04/13 00:36:11;;;;;;;25.35;9.73;;;;;;;-1.23;100.00;103175.59;5227130;28;20118;-77
2021/04/13 00:38:44;;;;;;;21.65;10.05;;;;;;;-1.23;100.00;103168.53;5227608;28;20574;-76
2021/04/13 00:41:23;;;;;;;22.50;9.98;;;;;;;-1.28;100.00;103172.19;5227256;28;20029;-78
2021/04/13 00:44:03;;;;;;;26.15;10.05;;;;;;;-1.32;100.00;103169.59;5219472;28;20025;-76
2021/04/13 00:46:44;;;;;;;23.05;9.98;;;;;;;-1.36;100.00;103170.56;5214805;28;20389;-77
2021/04/13 00:49:19;;;;;;;22.38;9.98;;;;;;;-1.45;100.00;103178.69;5219494;28;20045;-76
2021/04/13 00:51:53;;;;;;;28.25;10.68;;;;;;;-1.52;100.00;103169.16;5227398;28;20390;-76
2021/04/13 00:54:28;;;;;;;26.27;10.80;;;;;;;-1.61;100.00;103177.25;5227207;28;20036;-77
2021/04/13 00:57:08;;;;;;;26.65;10.90;;;;;;;-1.69;100.00;103168.66;5227499;28;20029;-77
2021/04/13 00:59:39;;;;;;;28.30;10.85;;;;;;;-1.77;100.00;103166.16;5224527;28;20402;-78
2021/04/13 01:02:13;;;;;;;21.55;10.13;;;;;;;-1.80;100.00;103171.50;5227438;28;20021;-77
2021/04/13 01:05:02;;;;;;;23.83;10.00;;;;;;;-1.84;100.00;103167.19;5227542;28;20363;-76
2021/04/13 01:07:37;;;;;;;27.55;10.38;;;;;;;-1.90;100.00;103165.53;5217818;28;20382;-77
2021/04/13 01:10:08;;;;;;;;;;;;;;;-1.96;100.00;103168.31;5226953;28;20021;-77
2021/04/13 01:12:42;;;;;;;25.38;10.88;;;;;;;-2.03;100.00;103169.28;5211664;28;19920;-77
2021/04/13 01:15:15;;;;;;;42.92;17.35;;;;;;;-2.08;100.00;103161.50;5222983;28;20058;-77
2021/04/13 01:17:46;;;;;;;43.05;16.38;;;;;;;-2.09;100.00;103162.38;5226711;28;20028;-77
2021/04/13 01:20:35;;;;;;;45.30;17.08;;;;;;;-2.10;100.00;103167.69;5226686;28;20033;-77
2021/04/13 01:23:11;;;;;;;39.20;15.88;;;;;;;-2.14;100.00;103171.25;5226910;28;20474;-77
2021/04/13 01:25:47;;;;;;;45.47;18.88;;;;;;;-2.16;100.00;103165.16;5226957;28;20036;-76
2021/04/13 01:28:21;;;;;;;52.35;21.25;;;;;;;-2.18;100.00;103169.56;5226321;28;20029;-78
2021/04/13 01:30:58;;;;;;;51.08;19.17;;;;;;;-2.19;100.00;103165.22;5221900;28;20027;-79
2021/04/13 01:33:41;;;;;;;37.25;17.17;;;;;;;-2.25;100.00;103168.81;5226416;28;20056;-77
2021/04/13 01:36:19;;;;;;;30.35;13.63;;;;;;;-2.29;100.00;103163.66;5226698;28;20021;-77
2021/04/13 01:38:58;;;;;;;31.65;13.68;;;;;;;-2.29;100.00;103168.91;5226503;28;20029;-80
2021/04/13 01:41:46;;;;;;;26.92;12.10;;;;;;;-2.30;100.00;103169.81;5226233;28;20033;-77
2021/04/13 01:44:18;;;;;;;32.53;13.43;;;;;;;-2.35;100.00;103175.13;5226308;28;20111;-77
2021/04/13 01:46:48;;;;;;;37.05;14.07;;;;;;;-2.39;100.00;103169.06;5216989;28;20501;-77
2021/04/13 01:49:30;;;;;;;34.30;15.55;;;;;;;-2.39;100.00;103178.72;5217043;28;20024;-78
2021/04/13 01:52:18;;;;;;;35.75;15.52;;;;;;;-2.44;100.00;103181.41;5226352;28;20100;-77
2021/04/13 01:54:53;;;;;;;37.10;16.63;;;;;;;-2.44;100.00;103176.16;5226432;28;20044;-77
2021/04/13 01:57:24;;;;;;;39.55;16.25;;;;;;;-2.46;100.00;103177.97;5225638;28;20083;-77
2021/04/13 02:00:06;;;;;;;49.03;18.67;;;;;;;-2.43;100.00;103187.53;5219910;28;20025;-77
2021/04/13 02:02:44;;;;;;;41.58;16.50;;;;;;;-2.44;100.00;103181.41;5223181;28;20029;-77
2021/04/13 02:05:17;;;;;;;51.67;20.02;;;;;;;-2.43;100.00;103182.28;5225266;28;20044;-77
2021/04/13 02:10:39;;;;;;;31.55;14.25;;;;;;;-2.42;100.00;103184.88;5225797;28;20032;-79
2021/04/13 02:13:13;;;;;;;;;;;;;;;-2.46;100.00;103188.47;5216999;28;20375;-80
2021/04/13 02:15:59;;;;;;;29.67;12.10;;;;;;;-2.53;100.00;103186.81;5222330;28;20262;-77
2021/04/13 02:18:38;;;;;;;30.02;11.60;;;;;;;-2.56;100.00;103183.38;5225651;28;20112;-76
2021/04/13 02:21:13;;;;;;;30.17;12.43;;;;;;;-2.56;100.00;103189.53;5215382;28;20429;-78
2021/04/13 02:23:49;;;;;;;33.85;12.15;;;;;;;-2.57;100.00;103192.16;5225005;28;20021;-77
2021/04/13 02:26:21;;;;;;;24.75;10.93;;;;;;;-2.58;100.00;103191.28;5225572;28;20033;-78
2021/04/13 02:28:54;;;;;;;29.73;12.80;;;;;;;-2.58;100.00;103195.69;5224066;28;20029;-77
2021/04/13 02:31:37;;;;;;;32.78;14.32;;;;;;;-2.60;100.00;103195.72;5219183;28;20087;-77
2021/04/13 02:34:15;;;;;;;37.15;14.82;;;;;;;-2.64;100.00;103188.75;5225450;28;20025;-77
2021/04/13 02:36:50;;;;;;;28.92;13.82;;;;;;;-2.68;100.00;103193.19;5225424;28;20028;-78
2021/04/13 02:39:25;;;;;;;47.95;17.90;;;;;;;-2.68;100.00;103187.06;5225183;28;20028;-79
2021/04/13 02:42:14;;;;;;;40.33;16.85;;;;;;;-2.70;100.00;103194.97;5225237;28;20044;-78
2021/04/13 02:44:54;;;;;;;51.33;18.02;;;;;;;-2.73;100.00;103197.66;5225309;28;20103;-77
2021/04/13 02:47:26;;;;;;;49.75;18.67;;;;;;;-2.77;100.00;103192.47;5224821;28;20453;-77
2021/04/13 02:50:03;;;;;;;60.17;20.88;;;;;;;-2.79;100.00;103199.50;5225127;28;20024;-78
2021/04/13 02:52:41;;;;;;;34.40;15.52;;;;;;;-2.80;100.00;103197.78;5225080;28;20051;-79
2021/04/13 02:55:20;;;;;;;31.05;12.85;;;;;;;-2.80;100.00;103195.16;5225048;28;20076;-77
2021/04/13 02:57:53;;;;;;;31.80;13.93;;;;;;;-2.80;100.00;103193.38;5219371;28;20028;-77
2021/04/13 03:00:31;;;;;;;28.23;12.60;;;;;;;-2.79;100.00;103196.88;5224848;28;20090;-77
2021/04/13 03:03:07;;;;;;;33.50;12.07;;;;;;;-2.80;100.00;103193.38;5225031;28;20040;-78
2021/04/13 03:05:39;;;;;;;29.05;10.95;;;;;;;-2.80;100.00;103185.50;5224990;28;20021;-77
2021/04/13 03:08:14;;;;;;;24.25;10.52;;;;;;;-2.81;100.00;103194.28;5224600;28;20024;-77
2021/04/13 03:10:50;;;;;;;28.13;12.68;;;;;;;-2.82;100.00;103189.03;5224793;28;20032;-77
2021/04/13 03:13:26;;;;;;;27.80;11.93;;;;;;;-2.82;100.00;103196.91;5224574;28;20021;-77
2021/04/13 03:15:59;;;;;;;27.00;12.82;;;;;;;-2.84;100.00;103202.19;5224870;28;20425;-77
2021/04/13 03:18:38;;;;;;;31.65;13.32;;;;;;;-2.88;100.00;103192.63;5224454;28;20020;-77
2021/04/13 03:21:19;;;;;;;31.92;13.25;;;;;;;-2.93;100.00;103203.19;5224532;28;20021;-77
2021/04/13 03:23:51;;;;;;;30.38;12.68;;;;;;;-2.95;100.00;103205.00;5224785;28;20039;-79
2021/04/13 03:26:27;;;;;;;31.25;13.48;;;;;;;-2.97;100.00;103204.13;5213126;28;20036;-76
2021/04/13 03:29:02;;;;;;;39.47;15.88;;;;;;;-2.97;100.00;103205.88;5224425;28;20029;-78
2021/04/13 03:31:36;;;;;;;30.95;12.88;;;;;;;-3.01;100.00;103202.47;5222876;28;20087;-76
2021/04/13 03:34:07;;;;;;;40.95;15.30;;;;;;;-3.02;100.00;103200.69;5229116;28;20404;-77
2021/04/13 03:36:39;;;;;;;31.30;12.88;;;;;;;-3.04;100.00;103204.25;5222064;28;20470;-77
2021/04/13 03:39:14;;;;;;;34.28;13.52;;;;;;;-3.07;100.00;103209.53;5231290;28;20028;-77
2021/04/13 03:41:47;;;;;;;32.05;13.35;;;;;;;-3.07;100.00;103212.16;5231077;28;20567;-77
2021/04/13 03:44:19;;;;;;;34.35;13.13;;;;;;;-3.06;100.00;103201.66;5231392;28;20462;-77
2021/04/13 03:46:50;;;;;;;28.75;12.43;;;;;;;-3.06;100.00;103200.75;5231363;28;20028;-76
2021/04/13 03:49:32;;;;;;;37.72;13.98;;;;;;;-3.06;100.00;103209.53;5231221;28;20056;-77
2021/04/13 03:52:11;;;;;;;29.13;11.10;;;;;;;-3.06;100.00;103211.25;5230780;28;20448;-77
2021/04/13 03:54:41;;;;;;;29.00;10.70;;;;;;;-3.08;100.00;103206.03;5231256;28;20401;-76
2021/04/13 03:57:12;;;;;;;26.17;11.65;;;;;;;-3.09;100.00;103204.31;5231196;28;20027;-79
2021/04/13 03:59:45;;;;;;;23.92;10.25;;;;;;;-3.09;100.00;103203.44;5231005;28;20032;-77
2021/04/13 04:02:15;;;;;;;23.27;9.85;;;;;;;-3.12;100.00;103207.81;5224949;28;20032;-77
2021/04/13 04:04:46;;;;;;;21.27;9.70;;;;;;;-3.14;100.00;103208.75;5230961;28;20032;-76
2021/04/13 04:07:36;;;;;;;24.40;10.38;;;;;;;-3.16;100.00;103206.16;5231204;28;20059;-77
2021/04/13 04:10:28;;;;;;;23.20;8.98;;;;;;;-3.17;100.00;103204.41;5230937;28;20096;-81
2021/04/13 04:13:03;;;;;;;33.55;12.27;;;;;;;-3.19;100.00;103200.94;5230914;28;20371;-80
2021/04/13 04:15:44;;;;;;;24.50;10.88;;;;;;;-3.19;100.00;103202.69;5229939;28;20021;-77
2021/04/13 04:18:31;;;;;;;22.05;10.23;;;;;;;-3.19;100.00;103205.31;5231113;28;20021;-78
2021/04/13 04:21:28;;;;;;;28.38;11.27;;;;;;;-3.20;100.00;103211.47;5227639;28;20110;-77
2021/04/13 04:24:18;;;;;;;29.33;11.15;;;;;;;-3.20;100.00;103214.97;5230452;28;20028;-77
2021/04/13 04:26:55;;;;;;;38.90;14.70;;;;;;;-3.20;100.00;103217.59;5224149;28;20490;-76
2021/04/13 04:29:28;;;;;;;42.28;14.20;;;;;;;-3.22;100.00;103223.72;5229669;28;20017;-77
2021/04/13 04:32:13;;;;;;;30.85;12.50;;;;;;;-3.22;100.00;103226.34;5223972;28;20025;-79
2021/04/13 04:34:43;;;;;;;38.63;12.75;;;;;;;-3.22;100.00;103226.34;5230686;28;20052;-80
2021/04/13 04:37:15;;;;;;;39.25;14.02;;;;;;;-3.22;100.00;103227.22;5231032;28;20095;-77
2021/04/13 04:39:46;;;;;;;36.15;14.20;;;;;;;-3.21;100.00;103228.13;5230506;28;20029;-76
2021/04/13 04:42:21;;;;;;;30.08;12.13;;;;;;;-3.22;100.00;103229.84;5230783;28;20055;-77
2021/04/13 04:45:10;;;;;;;31.02;11.70;;;;;;;-3.21;100.00;103234.22;5228895;28;20021;-77
2021/04/13 04:47:42;;;;;;;25.52;11.18;;;;;;;-3.21;100.00;103243.88;5225586;28;20544;-76
2021/04/13 04:50:16;;;;;;;28.13;11.40;;;;;;;-3.20;100.00;103240.34;5227575;28;20047;-77
2021/04/13 04:52:46;;;;;;;29.50;11.10;;;;;;;-3.19;100.00;103239.44;5217304;28;20025;-76
2021/04/13 04:55:17;;;;;;;36.30;11.73;;;;;;;-3.20;100.00;103240.34;5223747;28;20052;-76
2021/04/13 04:57:48;;;;;;;30.65;11.40;;;;;;;-3.22;100.00;103249.97;5227503;28;20021;-76
2021/04/13 05:00:19;;;;;;;29.40;11.73;;;;;;;-3.21;100.00;103247.34;5227125;28;20433;-79
2021/04/13 05:02:49;;;;;;;28.17;10.75;;;;;;;-3.18;100.00;103243.81;5226915;28;20111;-76
2021/04/13 05:05:20;;;;;;;28.83;10.85;;;;;;;-3.16;100.00;103245.53;5227497;28;20104;-78
2021/04/13 05:07:50;;;;;;;29.83;12.68;;;;;;;-3.10;100.00;103248.97;5218076;28;20029;-77
2021/04/13 05:10:21;;;;;;;28.52;12.15;;;;;;;-3.04;100.00;103256.78;5225728;28;20074;-76
2021/04/13 05:12:51;;;;;;;37.05;14.63;;;;;;;-2.97;100.00;103247.91;5227001;28;20041;-76
2021/04/13 05:15:22;;;;;;;34.97;13.98;;;;;;;-2.90;100.00;103260.94;5226669;28;20082;-76
2021/04/13 05:17:52;;;;;;;35.28;13.10;;;;;;;-2.85;100.00;103260.88;5217533;28;20029;-77
2021/04/13 05:20:22;;;;;;;35.33;11.82;;;;;;;-2.80;100.00;103269.56;5226735;28;20120;-77
2021/04/13 05:22:54;;;;;;;33.08;13.50;;;;;;;-2.70;100.00;103272.94;5227461;28;20052;-77
2021/04/13 05:25:24;;;;;;;37.55;12.60;;;;;;;-2.43;100.00;103267.28;5216981;28;20389;-79
2021/04/13 05:27:55;;;;;;;34.50;13.82;;;;;;;-1.26;100.00;103278.34;5226552;28;20108;-77
2021/04/13 05:30:26;;;;;;;24.33;11.32;;;;;;;-0.08;100.00;103272.16;5226339;28;20020;-77
2021/04/13 05:32:56;;;;;;;23.67;9.90;;;;;;;0.83;100.00;103275.88;5216491;28;20036;-79
2021/04/13 05:35:27;;;;;;;26.27;10.10;;;;;;;1.59;100.00;103277.97;5221454;28;20109;-77
2021/04/13 05:38:01;;;;;;;18.23;7.85;;;;;;;1.93;100.00;103274.25;5226788;28;20020;-77
2021/04/13 05:40:35;;;;;;;13.88;7.32;;;;;;;2.48;100.00;103281.16;5226630;28;20044;-77
2021/04/13 05:43:06;;;;;;;16.08;7.97;;;;;;;2.96;100.00;103288.25;5224008;28;20401;-78
2021/04/13 05:45:39;;;;;;;17.40;7.70;;;;;;;3.30;100.00;103295.75;5226388;28;20028;-80
2021/04/13 05:48:10;;;;;;;16.15;7.30;;;;;;;3.57;100.00;103285.00;5225100;28;20036;-78
2021/04/13 05:50:43;;;;;;;16.15;7.80;;;;;;;3.86;100.00;103295.28;5225994;28;20120;-79
2021/04/13 05:53:14;;;;;;;16.02;8.02;;;;;;;3.87;100.00;103299.69;5216087;28;20032;-78
2021/04/13 05:55:45;;;;;;;14.48;7.60;;;;;;;3.65;100.00;103298.81;5226305;28;20021;-78
2021/04/13 05:58:20;;;;;;;14.02;7.70;;;;;;;3.72;100.00;103304.78;5226407;28;20040;-77
2021/04/13 06:00:53;;;;;;;16.05;8.13;;;;;;;3.69;100.00;103308.41;5220785;28;20052;-77
2021/04/13 06:03:25;;;;;;;16.70;8.30;;;;;;;4.26;100.00;103314.00;5225788;28;20025;-79
2021/04/13 06:05:57;;;;;;;15.45;8.75;;;;;;;4.18;100.00;103314.34;5226695;28;20112;-78
2021/04/13 06:08:27;;;;;;;23.17;10.00;;;;;;;4.04;100.00;103316.72;5226446;28;20037;-78
2021/04/13 06:10:58;;;;;;;17.33;9.27;;;;;;;3.11;100.00;103314.19;5225127;28;20025;-78
2021/04/13 06:13:29;;;;;;;18.65;9.38;;;;;;;2.43;100.00;103312.25;5214868;28;20150;-79
2021/04/13 06:15:59;;;;;;;16.52;9.23;;;;;;;2.03;100.00;103312.75;5225228;28;20025;-80
2021/04/13 06:18:29;;;;;;;25.58;11.00;;;;;;;1.50;100.00;103323.25;5226370;28;20028;-78
2021/04/13 06:21:00;;;;;;;24.95;11.20;;;;;;;1.25;100.00;103320.47;5212711;28;20087;-77
2021/04/13 06:23:30;;;;;;;24.48;11.27;;;;;;;1.13;100.00;103323.50;5215315;28;20112;-77
2021/04/13 06:26:02;;;;;;;21.45;11.35;;;;;;;1.07;100.00;103327.19;5223380;28;20024;-78
2021/04/13 06:28:32;;;;;;;23.92;10.60;;;;;;;1.18;100.00;103340.09;5225611;28;20024;-77
2021/04/13 06:31:03;;;;;;;24.45;12.50;;;;;;;1.32;100.00;103329.97;5225644;28;20025;-76
2021/04/13 06:33:33;;;;;;;44.85;18.15;;;;;;;1.41;100.00;103340.28;5226256;28;20043;-77
2021/04/13 06:36:06;;;;;;;96.97;40.30;;;;;;;1.50;100.00;103337.34;5224133;28;20158;-79
2021/04/13 06:38:38;;;;;;;94.97;43.65;;;;;;;1.72;100.00;103342.84;5225180;28;20031;-76
2021/04/13 06:41:49;;;;;;;103.82;44.35;;;;;;;1.86;100.00;103342.41;5224945;28;20025;-77
2021/04/13 06:44:46;;;;;;;78.57;35.88;;;;;;;1.98;100.00;103341.16;5220355;28;20032;-78
2021/04/13 06:47:37;;;;;;;77.90;34.85;;;;;;;2.09;100.00;103339.00;5225225;28;20024;-76
2021/04/13 06:50:28;;;;;;;57.13;17.73;;;;;;;2.23;100.00;103338.56;5223588;28;20382;-76
2021/04/13 06:53:18;;;;;;;31.10;16.13;;;;;;;2.33;100.00;103339.97;5225223;28;20025;-78
2021/04/13 06:55:57;;;;;;;31.25;15.40;;;;;;;2.51;100.00;103344.66;5225480;28;20033;-79
2021/04/13 06:58:42;;;;;;;40.95;17.83;;;;;;;2.59;100.00;103344.38;5225519;28;20092;-79
2021/04/13 07:01:18;;;;;;;37.77;16.47;;;;;;;2.71;100.00;103351.91;5224871;28;20040;-78
2021/04/13 07:04:07;;;;;;;29.05;14.43;;;;;;;2.90;100.00;103349.44;5224572;28;20290;-79
2021/04/13 07:06:44;;;;;;;35.63;14.75;;;;;;;3.03;100.00;103353.38;5225106;28;20482;-78
2021/04/13 07:09:18;;;;;;;29.55;16.15;;;;;;;3.21;100.00;103358.91;5224062;28;20021;-78
2021/04/13 07:11:58;;;;;;;28.83;13.95;;;;;;;3.31;100.00;103362.97;5224381;28;20043;-81
2021/04/13 07:14:40;;;;;;;29.38;14.20;;;;;;;3.37;100.00;103365.41;5224471;28;20416;-77
2021/04/13 07:17:17;;;;;;;27.38;13.75;;;;;;;3.65;100.00;103367.84;5224423;28;20028;-76
2021/04/13 07:19:56;;;;;;;29.27;12.40;;;;;;;3.90;100.00;103365.94;5224431;28;20470;-76
2021/04/13 07:22:34;;;;;;;29.63;13.48;;;;;;;4.04;100.00;103365.41;5224395;28;20025;-77
2021/04/13 07:25:17;;;;;;;24.60;13.15;;;;;;;4.27;100.00;103359.16;5224543;28;20542;-77
2021/04/13 07:27:54;;;;;;;25.55;12.30;;;;;;;4.41;100.00;103363.84;5216926;28;20025;-77
2021/04/13 07:30:29;;;;;;;32.30;12.05;;;;;;;4.58;100.00;103358.69;5217489;28;20359;-78
2021/04/13 07:33:01;;;;;;;21.35;11.90;;;;;;;4.74;100.00;103361.56;5223244;28;20025;-77
2021/04/13 07:35:35;;;;;;;24.88;11.93;;;;;;;4.93;100.00;103369.59;5223320;28;20041;-77
2021/04/13 07:38:15;;;;;;;23.85;11.38;;;;;;;5.10;100.00;103367.03;5222372;28;20082;-77
2021/04/13 07:40:50;;;;;;;23.52;12.48;;;;;;;5.29;100.00;103375.06;5223427;28;20119;-77
2021/04/13 07:43:23;;;;;;;;;;;;;;;5.48;100.00;103369.75;5223425;28;20089;-80
2021/04/13 07:46:07;;;;;;;26.23;11.23;;;;;;;5.64;100.00;103372.53;5221029;28;19913;-76
2021/04/13 07:49:06;;;;;;;20.77;10.13;;;;;;;5.86;100.00;103380.38;5217494;28;20021;-77
2021/04/13 07:51:55;;;;;;;19.92;9.15;;;;;;;6.14;100.00;103379.94;5215823;28;20487;-77
2021/04/13 07:54:42;;;;;;;24.42;8.90;;;;;;;6.41;100.00;103373.19;5222848;28;20450;-79
2021/04/13 07:57:27;;;;;;;17.85;6.00;;;;;;;6.66;100.00;103380.81;5223341;28;20037;-77
2021/04/13 08:00:05;;;;;;;13.17;5.80;;;;;;;6.73;100.00;103376.06;5222787;28;20032;-77
2021/04/13 08:02:36;;;;;;;12.23;4.75;;;;;;;6.93;100.00;103375.88;5223001;28;20675;-77
2021/04/13 08:05:09;;;;;;;13.90;5.53;;;;;;;7.08;100.00;103371.53;5223173;28;20032;-77
2021/04/13 08:08:04;;;;;;;25.10;5.75;;;;;;;7.18;100.00;103372.75;5223174;28;20033;-79
2021/04/13 08:10:38;;;;;;;16.42;5.93;;;;;;;7.40;100.00;103379.59;5223774;28;20028;-78
2021/04/13 08:13:12;;;;;;;14.90;4.70;;;;;;;7.62;100.00;103376.59;5212039;28;20508;-78
2021/04/13 08:15:48;;;;;;;8.32;2.20;;;;;;;7.58;100.00;103381.25;5210510;28;20470;-77
2021/04/13 08:18:24;;;;;;;10.20;2.80;;;;;;;7.35;100.00;103378.97;5211235;28;20035;-78
2021/04/13 08:20:55;;;;;;;;;;;;;;;7.00;100.00;103379.06;5225416;28;20474;-79
2021/04/13 08:23:26;;;;;;;14.48;3.10;;;;;;;6.96;100.00;103383.69;5226580;28;19912;-79
2021/04/13 08:26:10;;;;;;;10.55;3.17;;;;;;;7.23;100.00;103377.84;5227413;28;20063;-78
2021/04/13 08:28:55;;;;;;;9.55;2.30;;;;;;;7.41;100.00;103383.97;5226886;28;20482;-78
2021/04/13 08:34:43;;;;;;;12.77;2.13;;;;;;;7.81;100.00;103385.31;5226570;28;20029;-80
2021/04/13 08:37:31;;;;;;;17.20;2.22;;;;;;;7.51;100.00;103390.53;5227533;28;20080;-79
2021/04/13 08:40:14;;;;;;;10.30;2.58;;;;;;;7.65;100.00;103387.13;5226890;28;20029;-84
2021/04/13 08:42:52;;;;;;;8.02;2.67;;;;;;;7.45;100.00;103386.41;5225598;28;20037;-78
2021/04/13 08:45:31;;;;;;;13.90;2.30;;;;;;;7.74;100.00;103384.78;5226969;28;20025;-79
2021/04/13 08:48:17;;;;;;;10.52;3.03;;;;;;;7.84;100.00;103382.47;5226713;28;20063;-80
2021/04/13 08:50:50;;;;;;;8.55;2.20;;;;;;;8.26;100.00;103383.63;5226768;28;20033;-79
2021/04/13 08:53:31;;;;;;;10.85;2.65;;;;;;;8.70;100.00;103380.16;5227724;28;20559;-80
2021/04/13 08:56:06;;;;;;;8.00;2.50;;;;;;;8.68;86.20;103387.41;5226700;28;20025;-79
2021/04/13 08:58:47;;;;;;;8.85;2.53;;;;;;;8.28;100.00;103392.41;5227268;28;20017;-80
2021/04/13 09:01:24;;;;;;;6.28;2.42;;;;;;;8.00;98.43;103394.00;5226503;28;20434;-80
2021/04/13 09:03:55;;;;;;;11.35;2.42;;;;;;;7.98;95.88;103389.69;5226328;28;20013;-79
2021/04/13 09:06:29;;;;;;;7.97;2.00;;;;;;;7.72;94.70;103386.66;5226738;28;20078;-79
2021/04/13 09:09:06;;;;;;;7.88;2.28;;;;;;;7.73;97.82;103388.41;5226471;28;20053;-79
2021/04/13 09:11:51;;;;;;;4.43;2.55;;;;;;;7.58;90.33;103383.94;5226319;28;20035;-79
2021/04/13 09:14:33;;;;;;;10.63;2.60;;;;;;;7.46;100.00;103377.44;5226459;28;20117;-78
2021/04/13 09:17:08;;;;;;;11.45;2.78;;;;;;;7.76;100.00;103379.34;5226203;28;20035;-79
2021/04/13 09:19:51;;;;;;;6.57;1.88;;;;;;;8.41;83.68;103369.38;5225891;28;20033;-79
2021/04/13 09:22:26;;;;;;;5.07;1.70;;;;;;;8.63;80.59;103376.13;5226795;28;20492;-79
2021/04/13 09:25:41;;;;;;;7.97;2.10;;;;;;;8.59;85.85;103377.28;5224934;28;20041;-78
2021/04/13 09:28:13;;;;;;;6.43;1.77;;;;;;;8.45;74.10;103370.06;5225952;28;20363;-80
2021/04/13 09:30:45;;;;;;;4.15;1.50;;;;;;;8.20;77.13;103371.47;5214548;28;20022;-80
2021/04/13 09:33:19;;;;;;;8.65;1.73;;;;;;;8.03;89.99;103377.81;5225096;28;20375;-79
2021/04/13 09:35:58;;;;;;;6.50;1.80;;;;;;;8.09;88.77;103378.41;5226283;28;20027;-79
2021/04/13 09:38:47;;;;;;;7.57;2.00;;;;;;;8.30;100.00;103377.13;5214267;28;20083;-80
2021/04/13 09:41:33;;;;;;;4.60;1.58;;;;;;;8.74;78.24;103371.00;5225820;28;20550;-79
2021/04/13 09:44:29;;;;;;;4.00;1.60;;;;;;;9.22;68.74;103369.78;5218692;28;20029;-79
2021/04/13 09:47:05;;;;;;;6.90;2.03;;;;;;;9.48;64.77;103372.63;5225060;28;20494;-78
2021/04/13 09:49:38;;;;;;;6.35;1.50;;;;;;;9.64;72.20;103367.13;5218544;28;20501;-77
2021/04/13 09:52:22;;;;;;;7.72;2.55;;;;;;;9.90;70.37;103360.97;5225774;28;20033;-78
2021/04/13 09:55:05;;;;;;;6.30;1.45;;;;;;;10.16;60.71;103355.69;5214414;28;20116;-79
2021/04/13 09:57:42;;;;;;;7.22;2.05;;;;;;;10.58;60.93;103350.13;5224098;28;20035;-78
2021/04/13 10:00:28;;;;;;;8.55;1.60;;;;;;;10.11;57.61;103359.53;5225124;28;20028;-76
2021/04/13 10:03:09;;;;;;;6.53;1.38;;;;;;;9.83;55.43;103352.44;5225389;28;20045;-79
2021/04/13 10:05:46;;;;;;;7.28;1.58;;;;;;;9.69;58.83;103346.25;5225040;28;20039;-78
2021/04/13 10:08:23;;;;;;;4.57;1.35;;;;;;;9.74;54.89;103360.22;5225371;28;20029;-79
2021/04/13 10:11:03;;;;;;;3.20;1.33;;;;;;;9.52;55.09;103350.91;5225350;28;20478;-79
2021/04/13 10:13:43;;;;;;;5.25;2.08;;;;;;;9.60;57.60;103356.63;5224724;28;20028;-77
2021/04/13 10:16:30;;;;;;;8.07;1.73;;;;;;;9.63;55.24;103354.72;5224782;28;20450;-77
2021/04/13 10:19:00;;;;;;;10.55;1.30;;;;;;;9.81;62.87;103345.47;5211725;28;20033;-77
2021/04/13 10:21:54;;;;;;;7.97;1.83;;;;;;;10.01;58.45;103347.69;5224014;28;20032;-78
2021/04/13 10:24:34;;;;;;;8.65;1.52;;;;;;;10.20;57.55;103341.13;5224816;28;20367;-78
2021/04/13 10:27:37;;;;;;;6.57;1.50;;;;;;;10.29;56.56;103340.50;5212982;28;20048;-78
2021/04/13 10:30:13;;;;;;;3.08;1.17;;;;;;;10.43;52.74;103343.13;5224235;28;20482;-78
2021/04/13 10:33:06;;;;;;;5.30;1.70;;;;;;;10.25;54.18;103339.03;5224399;28;20025;-79
2021/04/13 10:36:06;;;;;;;9.20;1.80;;;;;;;10.38;52.10;103337.22;5224673;28;20424;-80
2021/04/13 10:39:04;;;;;;;3.35;1.30;;;;;;;10.07;54.11;103339.25;5213426;28;20028;-79
2021/04/13 10:41:59;;;;;;;5.18;1.27;;;;;;;10.08;57.81;103334.72;5223176;28;20024;-79
2021/04/13 10:44:37;;;;;;;6.45;1.63;;;;;;;10.46;66.11;103339.38;5223271;28;20107;-78
2021/04/13 10:47:32;;;;;;;6.50;1.40;;;;;;;10.30;56.18;103334.22;5224288;28;20037;-78
2021/04/13 10:50:18;;;;;;;3.10;1.33;;;;;;;10.26;55.26;103328.19;5214083;28;20029;-79
2021/04/13 10:53:47;;;;;;;8.55;1.95;;;;;;;10.49;56.22;103325.72;5223740;28;20025;-78
2021/04/13 10:57:03;;;;;;;6.28;1.65;;;;;;;10.70;53.17;103324.28;5223697;28;20039;-78
2021/04/13 10:59:56;;;;;;;33.75;15.55;;;;;;;11.17;49.26;103322.72;5206978;28;20031;-79
2021/04/13 11:02:57;;;;;;;15.30;9.68;;;;;;;11.44;50.05;103321.69;5221862;28;20576;-77
2021/04/13 11:06:08;;;;;;;4.07;2.80;;;;;;;11.89;46.76;103317.47;5220541;28;20029;-78
2021/04/13 11:08:59;;;;;;;7.07;1.83;;;;;;;12.06;45.29;103311.69;5224239;28;20376;-77
2021/04/13 11:11:49;;;;;;;5.07;1.17;;;;;;;12.28;49.32;103307.38;5224265;28;20047;-77
2021/04/13 11:14:29;;;;;;;3.90;1.35;;;;;;;12.41;47.61;103305.44;5224081;28;20082;-78
2021/04/13 11:17:19;;;;;;;3.65;1.15;;;;;;;12.18;45.98;103304.50;5220349;28;20029;-79
2021/04/13 11:20:13;;;;;;;3.42;1.10;;;;;;;11.15;46.70;103298.66;5205619;28;20049;-78
2021/04/13 11:23:14;;;;;;;5.38;1.40;;;;;;;10.46;48.39;103301.81;5213840;28;20027;-77
2021/04/13 11:25:51;;;;;;;9.15;1.58;;;;;;;10.06;49.62;103301.81;5214301;28;20024;-78
2021/04/13 11:28:49;;;;;;;5.38;1.40;;;;;;;9.43;52.52;103302.41;5209844;28;20376;-79
2021/04/13 11:31:50;;;;;;;5.43;0.85;;;;;;;9.53;54.80;103299.00;5223112;28;20063;-78
2021/04/13 11:34:28;;;;;;;7.43;1.00;;;;;;;9.93;52.23;103293.72;5222779;28;20028;-79
2021/04/13 11:37:08;;;;;;;4.40;0.98;;;;;;;10.04;51.26;103285.81;5215246;28;20034;-78
2021/04/13 11:39:46;;;;;;;3.80;1.00;;;;;;;10.58;47.36;103288.38;5220946;28;20027;-78
2021/04/13 11:42:24;;;;;;;4.45;0.90;;;;;;;10.66;47.82;103289.69;5223326;28;20025;-78
2021/04/13 11:45:07;;;;;;;4.13;0.68;;;;;;;11.12;52.51;103281.91;5222548;28;20039;-78
2021/04/13 11:47:50;;;;;;;2.70;0.88;;;;;;;11.72;45.41;103280.22;5212323;28;20032;-79
2021/04/13 11:50:41;;;;;;;4.13;0.80;;;;;;;12.00;42.33;103274.50;5224180;28;20052;-78
2021/04/13 11:53:28;;;;;;;4.53;1.27;;;;;;;12.07;43.04;103270.34;5223224;28;20025;-79
2021/04/13 11:55:59;;;;;;;4.30;0.90;;;;;;;12.00;40.91;103271.81;5227407;28;20079;-79
2021/04/13 11:58:34;;;;;;;3.10;0.90;;;;;;;11.80;40.32;103275.13;5228029;28;20036;-79
2021/04/13 12:01:13;;;;;;;2.92;0.77;;;;;;;11.81;38.91;103266.94;5227303;28;20441;-80
2021/04/13 12:04:01;;;;;;;6.15;1.08;;;;;;;12.06;44.41;103265.97;5227156;28;20040;-80
2021/04/13 12:07:00;;;;;;;3.60;0.93;;;;;;;12.68;41.70;103259.34;5227906;28;20021;-79
2021/04/13 12:09:37;;;;;;;3.20;0.90;;;;;;;12.47;41.06;103263.72;5217272;28;20112;-80
2021/04/13 12:12:29;;;;;;;6.60;1.25;;;;;;;13.11;40.76;103256.78;5228526;28;20420;-79
2021/04/13 12:15:03;;;;;;;1.70;0.90;;;;;;;13.24;39.15;103256.66;5227247;28;20031;-80